Time;durP1;ratioP1;P1;durP2;ratioP2;P2;SDS_P1;SDS_P2;PMS_P1;PMS_P2;Temp;Humidity;BMP_temperature;BMP_pressure;BME280_temperature;BME280_humidity;BME280_pressure;Samples;Min_cycle;Max_cycle;Signal;HPM_P1;HPM_P2
2021/06/03 00:02:03;;;;;;;10.95;6.38;;;;;;;;;;5010433;28;20113;-75
2021/06/03 00:04:29;;;;;;;11.18;6.63;;;;;;;;;;5009136;28;20026;-75
2021/06/03 00:06:54;;;;;;;8.77;5.93;;;;;;;;;;4993057;28;20398;-76
2021/06/03 00:09:21;;;;;;;9.88;6.53;;;;;;;;;;5009195;28;20459;-75
2021/06/03 00:11:47;;;;;;;12.70;7.05;;;;;;;;;;5009308;28;20030;-74
2021/06/03 00:14:12;;;;;;;11.10;7.20;;;;;;;;;;5009036;28;20470;-74
2021/06/03 00:16:39;;;;;;;13.57;6.57;;;;;;;;;;5009049;28;20052;-74
2021/06/03 00:19:09;;;;;;;10.95;6.93;;;;;;;;;;5010248;28;20113;-74
2021/06/03 00:21:36;;;;;;;9.82;7.03;;;;;;;;;;5010421;28;20597;-76
2021/06/03 00:24:02;;;;;;;9.07;7.23;;;;;;;;;;5010073;28;20025;-74
2021/06/03 00:26:28;;;;;;;10.20;7.40;;;;;;;;;;5008520;28;20056;-74
2021/06/03 00:28:54;;;;;;;10.38;7.13;;;;;;;;;;5010234;28;20044;-73
2021/06/03 00:31:20;;;;;;;11.40;7.03;;;;;;;;;;5010199;28;20030;-74
2021/06/03 00:33:46;;;;;;;11.87;7.30;;;;;;;;;;4992734;28;20044;-74
2021/06/03 00:36:13;;;;;;;10.60;7.43;;;;;;;;;;5008522;28;20030;-74
2021/06/03 00:38:39;;;;;;;12.57;8.00;;;;;;;;;;4992924;28;20034;-75
2021/06/03 00:41:06;;;;;;;9.67;7.90;;;;;;;;;;5008905;28;20068;-74
2021/06/03 00:43:31;;;;;;;12.67;7.63;;;;;;;;;;5010008;28;20065;-75
2021/06/03 00:45:57;;;;;;;14.37;7.87;;;;;;;;;;5008705;28;20026;-74
2021/06/03 00:48:23;;;;;;;9.47;7.47;;;;;;;;;;5011273;28;20030;-73
2021/06/03 00:50:52;;;;;;;23.23;9.40;;;;;;;;;;5014239;28;20493;-74
2021/06/03 00:53:18;;;;;;;13.80;8.03;;;;;;;;;;5014151;28;20036;-75
2021/06/03 00:55:54;;;;;;;11.53;7.43;;;;;;;;;;5013928;28;20478;-74
2021/06/03 00:58:20;;;;;;;15.00;8.33;;;;;;;;;;5013734;28;20034;-74
2021/06/03 01:00:47;;;;;;;15.07;8.23;;;;;;;;;;5012340;28;20029;-74
2021/06/03 01:03:13;;;;;;;10.97;7.73;;;;;;;;;;5012325;28;20033;-73
2021/06/03 01:05:40;;;;;;;12.47;8.33;;;;;;;;;;5012497;28;20219;-74
2021/06/03 01:08:12;;;;;;;16.07;8.33;;;;;;;;;;5012313;28;20120;-74
2021/06/03 01:10:48;;;;;;;11.45;7.88;;;;;;;;;;5012891;28;20125;-74
2021/06/03 01:13:32;;;;;;;12.77;7.90;;;;;;;;;;5013362;28;20104;-74
2021/06/03 01:16:00;;;;;;;16.50;9.40;;;;;;;;;;5011659;28;20036;-74
2021/06/03 01:18:26;;;;;;;16.13;7.70;;;;;;;;;;5012244;28;20113;-74
2021/06/03 01:20:53;;;;;;;14.23;8.97;;;;;;;;;;5012258;28;20125;-74
2021/06/03 01:23:26;;;;;;;9.77;7.67;;;;;;;;;;5012324;28;20450;-74
2021/06/03 01:25:53;;;;;;;15.70;7.93;;;;;;;;;;5012380;28;20022;-74
2021/06/03 01:28:19;;;;;;;12.37;8.27;;;;;;;;;;5013201;28;20030;-74
2021/06/03 01:30:49;;;;;;;13.57;8.00;;;;;;;;;;5013151;28;20378;-74
2021/06/03 01:33:21;;;;;;;10.57;7.77;;;;;;;;;;5011671;28;20060;-75
2021/06/03 01:35:52;;;;;;;13.00;9.10;;;;;;;;;;5012053;28;20034;-74
2021/06/03 01:38:20;;;;;;;10.27;7.90;;;;;;;;;;5013129;28;20108;-74
2021/06/03 01:40:48;;;;;;;19.13;9.23;;;;;;;;;;5013282;28;20018;-74
2021/06/03 01:43:16;;;;;;;11.30;7.63;;;;;;;;;;5011598;28;20053;-74
2021/06/03 01:45:43;;;;;;;10.97;8.37;;;;;;;;;;5013127;28;20182;-75
2021/06/03 01:48:10;;;;;;;16.03;8.47;;;;;;;;;;5012655;28;20026;-76
2021/06/03 01:50:36;;;;;;;11.60;7.77;;;;;;;;;;5012799;28;20180;-74
2021/06/03 01:53:03;;;;;;;9.63;7.53;;;;;;;;;;5011483;28;20463;-74
2021/06/03 01:55:29;;;;;;;12.80;7.77;;;;;;;;;;5013449;28;20118;-74
2021/06/03 01:57:56;;;;;;;12.70;8.03;;;;;;;;;;5011601;28;20088;-74
2021/06/03 02:00:23;;;;;;;8.97;7.50;;;;;;;;;;5011228;28;20544;-75
2021/06/03 02:02:49;;;;;;;11.87;8.13;;;;;;;;;;5011196;28;20061;-75
2021/06/03 02:05:17;;;;;;;9.73;7.33;;;;;;;;;;5011246;28;20459;-75
2021/06/03 02:07:42;;;;;;;9.83;8.30;;;;;;;;;;5011139;28;20121;-73
2021/06/03 02:19:20;;;;;;;10.57;7.78;;;;;;;;;;5012203;28;20033;-75
2021/06/03 02:21:48;;;;;;;17.10;9.57;;;;;;;;;;5011088;28;20535;-73
2021/06/03 02:24:14;;;;;;;11.90;8.67;;;;;;;;;;5012233;28;20489;-74
2021/06/03 02:26:41;;;;;;;15.53;8.70;;;;;;;;;;5012658;28;20038;-74
2021/06/03 02:29:08;;;;;;;15.40;8.47;;;;;;;;;;5010758;28;20100;-73
2021/06/03 02:31:36;;;;;;;13.07;8.30;;;;;;;;;;4993993;28;20034;-74
2021/06/03 02:34:03;;;;;;;12.23;8.60;;;;;;;;;;5010627;28;20034;-75
2021/06/03 02:36:30;;;;;;;12.10;9.50;;;;;;;;;;5011972;28;20048;-74
2021/06/03 02:38:57;;;;;;;11.60;8.03;;;;;;;;;;5010941;28;20084;-74
2021/06/03 02:41:22;;;;;;;11.20;8.37;;;;;;;;;;5010521;28;20065;-74
2021/06/03 02:43:50;;;;;;;12.57;8.20;;;;;;;;;;5010714;28;20077;-75
2021/06/03 02:46:17;;;;;;;14.17;8.33;;;;;;;;;;5011739;28;20376;-75
2021/06/03 02:48:44;;;;;;;11.87;8.67;;;;;;;;;;5011452;28;20038;-75
2021/06/03 02:51:10;;;;;;;11.80;9.10;;;;;;;;;;5010333;28;20535;-74
2021/06/03 02:53:37;;;;;;;16.57;10.10;;;;;;;;;;5010297;28;20033;-75
2021/06/03 02:56:04;;;;;;;37.20;12.47;;;;;;;;;;5010501;28;20128;-74
2021/06/03 02:58:29;;;;;;;16.03;9.63;;;;;;;;;;5011803;28;20130;-74
2021/06/03 03:00:55;;;;;;;15.43;9.50;;;;;;;;;;5010484;28;20121;-74
2021/06/03 03:03:23;;;;;;;17.73;9.43;;;;;;;;;;5011469;28;20109;-74
2021/06/03 03:05:49;;;;;;;17.57;9.57;;;;;;;;;;5010346;28;20137;-74
2021/06/03 03:08:15;;;;;;;15.43;8.30;;;;;;;;;;5010138;28;20045;-74
2021/06/03 03:10:45;;;;;;;12.70;9.03;;;;;;;;;;5010151;28;20390;-74
2021/06/03 03:13:13;;;;;;;22.27;10.80;;;;;;;;;;5011158;28;20049;-73
2021/06/03 03:15:39;;;;;;;13.70;8.73;;;;;;;;;;5011202;28;20032;-73
2021/06/03 03:21:13;;;;;;;18.67;9.70;;;;;;;;;;5010747;28;20061;-75
2021/06/03 03:23:39;;;;;;;20.27;9.60;;;;;;;;;;5011373;28;20478;-76
2021/06/03 03:26:05;;;;;;;27.17;10.53;;;;;;;;;;5010862;28;20026;-77
2021/06/03 03:28:30;;;;;;;11.67;8.80;;;;;;;;;;5011360;28;20359;-77
2021/06/03 03:30:58;;;;;;;13.90;8.63;;;;;;;;;;4993374;28;20034;-77
2021/06/03 03:33:24;;;;;;;16.93;9.57;;;;;;;;;;4993459;28;20050;-76
2021/06/03 03:35:50;;;;;;;14.03;9.17;;;;;;;;;;5010069;28;20302;-77
2021/06/03 03:38:19;;;;;;;13.73;10.03;;;;;;;;;;5009591;28;20453;-76
2021/06/03 03:40:45;;;;;;;19.13;9.93;;;;;;;;;;5011549;28;20049;-76
2021/06/03 03:43:11;;;;;;;14.07;9.47;;;;;;;;;;5010788;28;20046;-76
2021/06/03 03:45:38;;;;;;;15.93;9.23;;;;;;;;;;5010200;28;20053;-77
2021/06/03 03:48:04;;;;;;;13.53;9.67;;;;;;;;;;5009995;28;20025;-76
2021/06/03 03:50:32;;;;;;;14.97;9.13;;;;;;;;;;5014852;28;20052;-76
2021/06/03 03:52:58;;;;;;;13.23;8.97;;;;;;;;;;5014982;28;20105;-76
2021/06/03 03:55:24;;;;;;;16.00;9.60;;;;;;;;;;5012501;28;20060;-77
2021/06/03 03:57:49;;;;;;;12.13;9.13;;;;;;;;;;5010282;28;20474;-76
2021/06/03 04:00:31;;;;;;;17.70;9.80;;;;;;;;;;5008570;28;20479;-78
2021/06/03 04:02:57;;;;;;;13.85;10.07;;;;;;;;;;5008941;28;20501;-77
2021/06/03 04:05:23;;;;;;;15.23;9.47;;;;;;;;;;5008565;28;20068;-77
2021/06/03 04:07:50;;;;;;;15.33;10.50;;;;;;;;;;5009037;28;20054;-77
2021/06/03 04:10:18;;;;;;;15.60;9.83;;;;;;;;;;5008671;28;20088;-76
2021/06/03 04:12:45;;;;;;;19.00;9.70;;;;;;;;;;5009822;28;20124;-77
2021/06/03 04:15:12;;;;;;;15.70;10.20;;;;;;;;;;5008081;28;20088;-77
2021/06/03 04:17:38;;;;;;;13.50;9.13;;;;;;;;;;5010058;28;20030;-75
2021/06/03 04:20:07;;;;;;;16.10;9.73;;;;;;;;;;5008395;28;20476;-77
2021/06/03 04:22:33;;;;;;;14.87;9.73;;;;;;;;;;5010013;28;20049;-78
2021/06/03 04:24:59;;;;;;;11.40;9.00;;;;;;;;;;5012029;28;20068;-76
2021/06/03 04:27:25;;;;;;;18.20;9.53;;;;;;;;;;4996926;28;20052;-77
2021/06/03 04:29:51;;;;;;;13.97;8.83;;;;;;;;;;5014924;28;20049;-77
2021/06/03 04:32:17;;;;;;;14.13;9.50;;;;;;;;;;5012446;28;20036;-76
2021/06/03 04:34:43;;;;;;;17.87;9.80;;;;;;;;;;5013020;28;20025;-77
2021/06/03 04:37:11;;;;;;;20.57;10.33;;;;;;;;;;5013740;28;20485;-76
2021/06/03 04:39:37;;;;;;;18.17;11.00;;;;;;;;;;5012508;28;20068;-76
2021/06/03 04:42:04;;;;;;;14.10;9.67;;;;;;;;;;5012228;28;20436;-77
2021/06/03 04:44:29;;;;;;;19.40;10.60;;;;;;;;;;5011942;28;20123;-76
2021/06/03 04:46:55;;;;;;;16.90;9.87;;;;;;;;;;5012521;28;20504;-76
2021/06/03 04:49:20;;;;;;;21.30;9.87;;;;;;;;;;5012103;28;20042;-77
2021/06/03 04:51:47;;;;;;;18.40;11.13;;;;;;;;;;5012124;28;20489;-76
2021/06/03 04:54:14;;;;;;;13.20;9.90;;;;;;;;;;5012950;28;20034;-79
2021/06/03 04:56:39;;;;;;;17.27;10.43;;;;;;;;;;5013431;28;20021;-76
2021/06/03 04:59:05;;;;;;;15.47;10.67;;;;;;;;;;5013187;28;20372;-78
2021/06/03 05:01:31;;;;;;;13.47;10.80;;;;;;;;;;5011304;28;20025;-77
2021/06/03 05:03:56;;;;;;;25.13;11.67;;;;;;;;;;5012095;28;20398;-77
2021/06/03 05:06:22;;;;;;;21.07;11.67;;;;;;;;;;5011748;28;20053;-76
2021/06/03 05:08:47;;;;;;;15.37;10.67;;;;;;;;;;5011921;28;20076;-77
2021/06/03 05:11:13;;;;;;;16.20;11.97;;;;;;;;;;5012816;28;20033;-76
2021/06/03 05:13:39;;;;;;;17.40;10.50;;;;;;;;;;5011795;28;20040;-77
2021/06/03 05:16:06;;;;;;;19.83;10.90;;;;;;;;;;5011406;28;20121;-76
2021/06/03 05:18:32;;;;;;;19.13;10.50;;;;;;;;;;5011469;28;20503;-77
2021/06/03 05:20:57;;;;;;;17.00;10.90;;;;;;;;;;5011664;28;20107;-79
2021/06/03 05:23:23;;;;;;;19.50;11.90;;;;;;;;;;5011200;28;20489;-78
2021/06/03 05:25:49;;;;;;;16.50;10.73;;;;;;;;;;5011628;28;20037;-80
2021/06/03 05:28:15;;;;;;;12.60;10.13;;;;;;;;;;5010940;28;20029;-78
2021/06/03 05:30:42;;;;;;;15.33;9.77;;;;;;;;;;5012524;28;20030;-78
2021/06/03 05:33:09;;;;;;;14.20;8.93;;;;;;;;;;5012400;28;20041;-78
2021/06/03 05:35:35;;;;;;;16.58;10.45;;;;;;;;;;4995370;28;20038;-78
2021/06/03 05:38:01;;;;;;;17.70;9.70;;;;;;;;;;5013449;28;20064;-76
2021/06/03 05:40:28;;;;;;;17.23;9.93;;;;;;;;;;4987508;28;20062;-76
2021/06/03 05:42:55;;;;;;;13.98;9.10;;;;;;;;;;4979856;28;20030;-78
2021/06/03 05:45:21;;;;;;;16.95;8.95;;;;;;;;;;4984286;28;20089;-75
2021/06/03 05:47:48;;;;;;;13.50;8.65;;;;;;;;;;4988622;28;20050;-77
2021/06/03 05:50:16;;;;;;;12.38;8.77;;;;;;;;;;4983222;28;20034;-75
2021/06/03 05:52:42;;;;;;;11.80;8.57;;;;;;;;;;4982490;28;20054;-76
2021/06/03 05:55:11;;;;;;;12.70;9.43;;;;;;;;;;5003758;28;20030;-77
2021/06/03 05:57:37;;;;;;;13.80;9.57;;;;;;;;;;4995857;28;20034;-76
2021/06/03 06:00:10;;;;;;;12.48;8.13;;;;;;;;;;4989124;28;20031;-76
2021/06/03 06:02:56;;;;;;;12.02;8.80;;;;;;;;;;4987260;28;20041;-77
2021/06/03 06:08:08;;;;;;;22.88;8.32;;;;;;;;;;4991270;28;20115;-78
2021/06/03 06:10:35;;;;;;;14.38;8.23;;;;;;;;;;4982183;28;20463;-77
2021/06/03 06:13:01;;;;;;;13.85;8.52;;;;;;;;;;4973415;28;20419;-79
2021/06/03 06:15:27;;;;;;;12.30;7.95;;;;;;;;;;4976121;28;20398;-78
2021/06/03 06:17:53;;;;;;;12.25;7.82;;;;;;;;;;4979276;28;20034;-77
2021/06/03 06:20:19;;;;;;;12.60;7.30;;;;;;;;;;5004516;28;20087;-77
2021/06/03 06:22:44;;;;;;;12.52;8.20;;;;;;;;;;4991196;28;20074;-78
2021/06/03 06:25:11;;;;;;;16.02;8.55;;;;;;;;;;4995720;28;20022;-76
2021/06/03 06:27:38;;;;;;;15.35;8.35;;;;;;;;;;4995170;28;20045;-77
2021/06/03 06:30:06;;;;;;;17.35;9.90;;;;;;;;;;4989887;28;20034;-79
2021/06/03 06:32:32;;;;;;;11.60;7.90;;;;;;;;;;4990993;28;20594;-78
2021/06/03 06:34:57;;;;;;;13.55;7.85;;;;;;;;;;4993895;28;20061;-78
2021/06/03 06:37:23;;;;;;;13.23;8.65;;;;;;;;;;4993605;28;20037;-79
2021/06/03 06:39:48;;;;;;;12.02;8.95;;;;;;;;;;4991689;28;20090;-80
2021/06/03 06:42:14;;;;;;;17.67;9.05;;;;;;;;;;4988520;28;20034;-79
2021/06/03 06:44:40;;;;;;;17.80;8.75;;;;;;;;;;4981667;28;20117;-78
2021/06/03 06:47:06;;;;;;;17.85;9.77;;;;;;;;;;4985734;28;20030;-78
2021/06/03 06:49:31;;;;;;;18.83;9.85;;;;;;;;;;5011699;28;20022;-77
2021/06/03 06:51:57;;;;;;;13.60;9.02;;;;;;;;;;4996010;28;20054;-79
2021/06/03 06:54:22;;;;;;;15.52;10.63;;;;;;;;;;4999499;28;20107;-79
2021/06/03 06:56:48;;;;;;;14.80;9.70;;;;;;;;;;5010128;28;20048;-79
2021/06/03 06:59:14;;;;;;;14.07;8.68;;;;;;;;;;5011332;28;20029;-77
2021/06/03 07:01:39;;;;;;;15.43;8.88;;;;;;;;;;5009613;28;20018;-77
2021/06/03 07:04:05;;;;;;;14.75;6.97;;;;;;;;;;4992243;28;20322;-77
2021/06/03 07:06:30;;;;;;;15.43;7.57;;;;;;;;;;5000227;28;20050;-76
2021/06/03 07:08:56;;;;;;;16.15;8.65;;;;;;;;;;4968648;28;20026;-78
2021/06/03 07:11:24;;;;;;;19.65;6.80;;;;;;;;;;4982904;28;20031;-78
2021/06/03 07:13:50;;;;;;;11.57;6.15;;;;;;;;;;5002665;28;20563;-78
2021/06/03 07:16:17;;;;;;;10.25;6.50;;;;;;;;;;4994364;28;20045;-77
2021/06/03 07:18:42;;;;;;;16.05;6.40;;;;;;;;;;4995561;28;20030;-77
2021/06/03 07:21:08;;;;;;;17.23;8.88;;;;;;;;;;4994126;28;20299;-79
2021/06/03 07:23:34;;;;;;;13.60;6.40;;;;;;;;;;4991229;28;20066;-77
2021/06/03 07:25:59;;;;;;;11.95;7.18;;;;;;;;;;4995963;28;20026;-77
2021/06/03 07:28:26;;;;;;;10.88;5.95;;;;;;;;;;4990914;28;20042;-78
2021/06/03 07:30:52;;;;;;;13.25;5.53;;;;;;;;;;4993015;28;20034;-79
2021/06/03 07:33:18;;;;;;;16.40;5.32;;;;;;;;;;4979449;28;20026;-79
2021/06/03 07:35:44;;;;;;;10.65;5.95;;;;;;;;;;4976400;28;20014;-78
2021/06/03 07:38:10;;;;;;;8.77;5.13;;;;;;;;;;4996817;28;20034;-78
2021/06/03 07:40:38;;;;;;;11.27;5.57;;;;;;;;;;4986193;28;20045;-78
2021/06/03 07:43:07;;;;;;;10.57;4.80;;;;;;;;;;4988073;28;20026;-77
2021/06/03 07:45:33;;;;;;;7.43;5.13;;;;;;;;;;4976491;28;20042;-78
2021/06/03 07:47:59;;;;;;;13.40;5.05;;;;;;;;;;4995667;28;20097;-79
2021/06/03 07:50:31;;;;;;;33.80;6.00;;;;;;;;;;4991192;28;20030;-76
2021/06/03 07:52:58;;;;;;;7.88;4.28;;;;;;;;;;4992672;28;20096;-77
2021/06/03 07:55:25;;;;;;;5.10;4.03;;;;;;;;;;4992264;28;20042;-78
2021/06/03 07:57:54;;;;;;;6.32;4.05;;;;;;;;;;4984692;28;20125;-81
2021/06/03 08:00:21;;;;;;;15.15;4.80;;;;;;;;;;4993665;28;20089;-78
2021/06/03 08:02:47;;;;;;;12.15;4.25;;;;;;;;;;4987982;28;20161;-78
2021/06/03 08:05:17;;;;;;;8.02;4.70;;;;;;;;;;4983629;28;20833;-80
2021/06/03 08:07:43;;;;;;;10.00;5.13;;;;;;;;;;4966750;28;20030;-78
2021/06/03 08:10:12;;;;;;;7.93;4.90;;;;;;;;;;4980082;28;20045;-79
2021/06/03 08:12:37;;;;;;;8.13;4.13;;;;;;;;;;4977952;28;20030;-77
2021/06/03 08:15:06;;;;;;;10.20;5.38;;;;;;;;;;4982669;28;20132;-78
2021/06/03 08:17:32;;;;;;;6.63;4.43;;;;;;;;;;4981698;28;20041;-76
2021/06/03 08:19:58;;;;;;;9.43;4.28;;;;;;;;;;4978536;28;20034;-78
2021/06/03 08:22:24;;;;;;;7.95;4.38;;;;;;;;;;4984289;28;20023;-76
2021/06/03 08:24:50;;;;;;;6.60;4.20;;;;;;;;;;4980376;28;20061;-77
2021/06/03 08:27:16;;;;;;;9.10;3.92;;;;;;;;;;4967356;28;20035;-77
2021/06/03 08:29:42;;;;;;;7.30;4.78;;;;;;;;;;4981778;28;20034;-78
2021/06/03 08:32:07;;;;;;;7.47;4.82;;;;;;;;;;4990575;28;20121;-78
2021/06/03 08:34:33;;;;;;;11.10;4.40;;;;;;;;;;4984383;28;20734;-79
2021/06/03 08:36:59;;;;;;;11.20;5.50;;;;;;;;;;4984120;28;20038;-78
2021/06/03 08:39:25;;;;;;;7.78;4.57;;;;;;;;;;4973585;28;20039;-78
2021/06/03 08:41:51;;;;;;;7.15;4.97;;;;;;;;;;4984357;28;20022;-77
2021/06/03 08:44:17;;;;;;;8.55;4.40;;;;;;;;;;4979180;28;20046;-77
2021/06/03 08:46:43;;;;;;;8.98;4.32;;;;;;;;;;4978532;28;20822;-76
2021/06/03 08:49:09;;;;;;;14.35;4.68;;;;;;;;;;4982020;28;20867;-78
2021/06/03 08:51:36;;;;;;;12.00;4.15;;;;;;;;;;4981026;28;20038;-77
2021/06/03 08:54:03;;;;;;;7.32;4.10;;;;;;;;;;4980191;28;20088;-77
2021/06/03 08:56:29;;;;;;;6.95;3.58;;;;;;;;;;4975898;28;20065;-76
2021/06/03 08:59:00;;;;;;;8.02;4.18;;;;;;;;;;4978183;28;20133;-76
2021/06/03 09:01:28;;;;;;;3.55;3.00;;;;;;;;;;4972745;28;20214;-78
2021/06/03 09:03:55;;;;;;;10.73;3.72;;;;;;;;;;4979517;28;20427;-77
2021/06/03 09:06:21;;;;;;;7.45;3.20;;;;;;;;;;4978095;28;20046;-76
2021/06/03 09:08:55;;;;;;;7.05;3.15;;;;;;;;;;4980321;28;20038;-79
2021/06/03 09:11:22;;;;;;;6.50;3.08;;;;;;;;;;4985361;28;20097;-77
2021/06/03 09:13:55;;;;;;;8.90;3.10;;;;;;;;;;4982516;28;20026;-77
2021/06/03 09:16:26;;;;;;;6.68;4.90;;;;;;;;;;4981059;28;20066;-76
2021/06/03 09:18:54;;;;;;;6.70;3.53;;;;;;;;;;4977686;28;20121;-75
2021/06/03 09:21:24;;;;;;;5.25;3.35;;;;;;;;;;4979594;28;20053;-77
2021/06/03 09:24:10;;;;;;;6.13;3.28;;;;;;;;;;4978938;28;20034;-77
2021/06/03 09:27:02;;;;;;;5.43;3.85;;;;;;;;;;4978600;28;20905;-76
2021/06/03 09:29:34;;;;;;;7.70;3.33;;;;;;;;;;4981030;28;20057;-79
2021/06/03 09:32:09;;;;;;;3.58;3.22;;;;;;;;;;4984938;28;20050;-77
2021/06/03 09:34:39;;;;;;;6.53;3.53;;;;;;;;;;4981945;28;20045;-78
2021/06/03 09:37:08;;;;;;;10.68;3.78;;;;;;;;;;4981045;28;20038;-77
2021/06/03 09:39:42;;;;;;;5.97;3.65;;;;;;;;;;4975473;28;20046;-79
2021/06/03 09:42:14;;;;;;;6.75;4.45;;;;;;;;;;4984789;28;20034;-78
2021/06/03 09:45:05;;;;;;;4.28;3.22;;;;;;;;;;4980827;28;20058;-77
2021/06/03 09:47:36;;;;;;;5.72;3.03;;;;;;;;;;4994940;28;20057;-76
2021/06/03 09:50:05;;;;;;;9.55;3.80;;;;;;;;;;4967786;28;20038;-78
2021/06/03 09:52:33;;;;;;;8.05;4.22;;;;;;;;;;4985624;28;20069;-78
2021/06/03 09:55:00;;;;;;;8.07;3.88;;;;;;;;;;4988870;28;20493;-78
2021/06/03 09:57:34;;;;;;;6.28;4.10;;;;;;;;;;4984836;28;20034;-78
2021/06/03 10:00:20;;;;;;;4.78;3.40;;;;;;;;;;4985567;28;20125;-78
2021/06/03 10:02:46;;;;;;;3.92;3.50;;;;;;;;;;5000387;28;20029;-78
2021/06/03 10:05:22;;;;;;;7.72;3.38;;;;;;;;;;4984939;28;20038;-77
2021/06/03 10:08:02;;;;;;;12.60;4.88;;;;;;;;;;4981911;28;20053;-77
2021/06/03 10:10:30;;;;;;;5.07;3.80;;;;;;;;;;4976252;28;20438;-79
2021/06/03 10:12:58;;;;;;;5.88;4.22;;;;;;;;;;4970145;28;20039;-79
2021/06/03 10:15:23;;;;;;;8.38;4.15;;;;;;;;;;4976546;28;20026;-77
2021/06/03 10:17:54;;;;;;;6.30;3.30;;;;;;;;;;4977766;28;20037;-78
2021/06/03 10:20:41;;;;;;;11.80;3.58;;;;;;;;;;4981552;28;20069;-79
2021/06/03 10:23:12;;;;;;;5.25;3.42;;;;;;;;;;4974589;28;20038;-78
2021/06/03 10:25:39;;;;;;;4.03;3.08;;;;;;;;;;4992105;28;20050;-79
2021/06/03 10:28:09;;;;;;;4.35;3.00;;;;;;;;;;4971850;28;20057;-78
2021/06/03 10:30:51;;;;;;;11.25;3.42;;;;;;;;;;4986037;28;20045;-80
2021/06/03 10:33:20;;;;;;;8.73;3.80;;;;;;;;;;4984043;28;20053;-79
2021/06/03 10:35:49;;;;;;;10.98;3.78;;;;;;;;;;4990015;28;20124;-78
2021/06/03 10:38:15;;;;;;;6.93;3.45;;;;;;;;;;4984376;28;20030;-80
2021/06/03 10:40:44;;;;;;;4.97;3.63;;;;;;;;;;4988206;28;20069;-79
2021/06/03 10:43:10;;;;;;;4.60;3.97;;;;;;;;;;4991535;28;20059;-79
2021/06/03 10:45:38;;;;;;;10.10;3.55;;;;;;;;;;4989651;28;20309;-80
2021/06/03 10:48:04;;;;;;;4.18;3.03;;;;;;;;;;4990229;28;20092;-78
2021/06/03 10:50:35;;;;;;;6.50;3.80;;;;;;;;;;4989898;28;20185;-79
2021/06/03 10:53:08;;;;;;;3.90;3.10;;;;;;;;;;4985497;28;20089;-79
2021/06/03 10:55:40;;;;;;;4.18;3.28;;;;;;;;;;4987470;28;20039;-79
2021/06/03 10:58:09;;;;;;;4.55;3.03;;;;;;;;;;4984636;28;20038;-77
2021/06/03 11:00:37;;;;;;;3.63;3.30;;;;;;;;;;4968920;28;20042;-80
2021/06/03 11:03:10;;;;;;;5.57;3.30;;;;;;;;;;4988146;28;20030;-78
2021/06/03 11:05:41;;;;;;;4.78;4.18;;;;;;;;;;4983965;28;20057;-80
2021/06/03 11:08:27;;;;;;;6.75;3.30;;;;;;;;;;4985085;28;20053;-78
2021/06/03 11:10:54;;;;;;;5.28;3.10;;;;;;;;;;4969213;28;20019;-77
2021/06/03 11:13:21;;;;;;;4.53;3.00;;;;;;;;;;4970500;28;20036;-78
2021/06/03 11:16:06;;;;;;;7.10;3.00;;;;;;;;;;4974460;28;20026;-76
2021/06/03 11:18:42;;;;;;;5.72;3.45;;;;;;;;;;4981454;28;20682;-78
2021/06/03 11:21:08;;;;;;;6.28;3.80;;;;;;;;;;4985108;28;20094;-78
2021/06/03 11:23:33;;;;;;;4.25;3.83;;;;;;;;;;4996299;28;20414;-77
2021/06/03 11:26:06;;;;;;;11.75;4.38;;;;;;;;;;4977035;28;20619;-79
2021/06/03 11:28:32;;;;;;;15.93;5.15;;;;;;;;;;4979401;28;20034;-76
2021/06/03 11:31:23;;;;;;;4.22;3.80;;;;;;;;;;4962216;28;20064;-77
2021/06/03 11:34:16;;;;;;;6.80;5.32;;;;;;;;;;4977415;28;20038;-78
2021/06/03 11:36:45;;;;;;;10.63;4.50;;;;;;;;;;4995322;28;20039;-77
2021/06/03 11:39:32;;;;;;;11.75;4.88;;;;;;;;;;4976314;28;20081;-78
2021/06/03 11:42:21;;;;;;;6.00;3.65;;;;;;;;;;4976895;28;20034;-78
2021/06/03 11:45:07;;;;;;;5.30;3.47;;;;;;;;;;4984895;28;20411;-77
2021/06/03 11:47:39;;;;;;;6.30;3.45;;;;;;;;;;4985349;28;20482;-77
2021/06/03 11:50:14;;;;;;;10.80;4.97;;;;;;;;;;4983016;28;20038;-81
2021/06/03 11:53:00;;;;;;;7.80;3.50;;;;;;;;;;4982450;28;20169;-79
2021/06/03 11:55:53;;;;;;;5.80;3.67;;;;;;;;;;4975171;28;20119;-81
2021/06/03 11:58:44;;;;;;;4.50;3.40;;;;;;;;;;4969575;28;20049;-77
2021/06/03 12:01:28;;;;;;;6.45;3.60;;;;;;;;;;4971345;28;20030;-78
2021/06/03 12:04:14;;;;;;;4.97;3.53;;;;;;;;;;4972122;28;20502;-79
2021/06/03 12:06:48;;;;;;;4.00;3.60;;;;;;;;;;4976644;28;20042;-79
2021/06/03 12:09:35;;;;;;;6.93;3.70;;;;;;;;;;4974713;28;20034;-79
2021/06/03 12:12:05;;;;;;;4.55;3.60;;;;;;;;;;4987312;28;20112;-77
2021/06/03 12:14:43;;;;;;;8.23;3.50;;;;;;;;;;4983174;28;20159;-80
2021/06/03 12:17:11;;;;;;;5.95;3.72;;;;;;;;;;4979917;28;20026;-76
2021/06/03 12:19:41;;;;;;;5.88;3.60;;;;;;;;;;4974869;28;20042;-77
2021/06/03 12:22:12;;;;;;;5.72;3.58;;;;;;;;;;4973895;28;20061;-76
2021/06/03 12:24:46;;;;;;;;;;;;;;;;;;4990725;28;20042;-77
2021/06/03 12:27:41;;;;;;;7.35;4.43;;;;;;;;;;4972756;28;20417;-77
2021/06/03 12:30:21;;;;;;;15.18;5.00;;;;;;;;;;4977039;28;20138;-77
2021/06/03 12:33:10;;;;;;;5.28;3.47;;;;;;;;;;4976323;28;20027;-76
2021/06/03 12:35:49;;;;;;;6.00;3.10;;;;;;;;;;4979741;28;20038;-76
2021/06/03 12:38:39;;;;;;;4.43;3.10;;;;;;;;;;4991186;28;20359;-76
2021/06/03 12:41:21;;;;;;;5.97;3.53;;;;;;;;;;4982461;28;20065;-76
2021/06/03 12:43:52;;;;;;;4.20;3.17;;;;;;;;;;4975478;28;20062;-76
2021/06/03 12:46:18;;;;;;;6.35;3.88;;;;;;;;;;4973087;28;20034;-75
2021/06/03 12:48:44;;;;;;;6.82;3.50;;;;;;;;;;4985274;28;20041;-76
2021/06/03 12:51:14;;;;;;;7.20;3.03;;;;;;;;;;4974914;28;20030;-76
2021/06/03 12:53:48;;;;;;;4.05;3.63;;;;;;;;;;4978858;28;20034;-76
2021/06/03 12:56:22;;;;;;;4.82;3.85;;;;;;;;;;4985595;28;20054;-77
2021/06/03 12:58:52;;;;;;;7.65;3.72;;;;;;;;;;4981487;28;20026;-78
2021/06/03 13:01:18;;;;;;;3.47;2.80;;;;;;;;;;4971599;28;20050;-78
2021/06/03 13:04:00;;;;;;;6.55;3.97;;;;;;;;;;4977240;28;20034;-78
2021/06/03 13:06:26;;;;;;;6.22;3.22;;;;;;;;;;4980447;28;20070;-78
2021/06/03 13:09:00;;;;;;;5.72;3.10;;;;;;;;;;4995296;28;20034;-78
2021/06/03 13:11:34;;;;;;;5.15;3.15;;;;;;;;;;4980537;28;20030;-79
2021/06/03 13:14:26;;;;;;;5.95;3.35;;;;;;;;;;4967603;28;20077;-77
2021/06/03 13:17:01;;;;;;;6.68;3.95;;;;;;;;;;4975557;28;20046;-76
2021/06/03 13:19:27;;;;;;;3.58;2.75;;;;;;;;;;4971559;28;20076;-70
2021/06/03 13:21:58;;;;;;;6.20;3.47;;;;;;;;;;4990747;28;20113;-77
2021/06/03 13:24:46;;;;;;;4.65;3.08;;;;;;;;;;4983052;28;20388;-79
2021/06/03 13:27:24;;;;;;;9.65;3.35;;;;;;;;;;4978161;28;20042;-77
2021/06/03 13:29:53;;;;;;;4.53;3.10;;;;;;;;;;4975156;28;20058;-77
2021/06/03 13:32:25;;;;;;;7.18;3.28;;;;;;;;;;4992251;28;20030;-80
2021/06/03 13:34:58;;;;;;;7.80;3.55;;;;;;;;;;4973479;28;20032;-78
2021/06/03 13:37:30;;;;;;;5.18;2.83;;;;;;;;;;4996830;28;20041;-74
2021/06/03 13:39:59;;;;;;;3.42;3.08;;;;;;;;;;4977363;28;20034;-79
2021/06/03 13:42:29;;;;;;;6.47;3.83;;;;;;;;;;4976621;28;20035;-76
2021/06/03 13:45:05;;;;;;;4.10;3.42;;;;;;;;;;4979565;28;20062;-76
2021/06/03 13:47:51;;;;;;;7.13;3.83;;;;;;;;;;4981856;28;20031;-78
2021/06/03 13:50:25;;;;;;;4.07;3.20;;;;;;;;;;4978432;28;20077;-80
2021/06/03 13:53:07;;;;;;;6.07;3.55;;;;;;;;;;4976128;28;20037;-78
2021/06/03 13:55:38;;;;;;;14.93;3.95;;;;;;;;;;4983310;28;20046;-79
2021/06/03 13:58:05;;;;;;;7.53;3.60;;;;;;;;;;4982839;28;20498;-77
2021/06/03 14:00:35;;;;;;;5.00;2.83;;;;;;;;;;4976683;28;20445;-79
2021/06/03 14:03:12;;;;;;;3.72;3.00;;;;;;;;;;4985605;28;20451;-77
2021/06/03 14:05:58;;;;;;;5.72;3.38;;;;;;;;;;4988184;28;20034;-78
2021/06/03 14:08:31;;;;;;;7.30;3.65;;;;;;;;;;4981873;28;20041;-76
2021/06/03 14:14:05;;;;;;;7.43;3.75;;;;;;;;;;4978906;28;20034;-78
2021/06/03 14:16:58;;;;;;;8.80;3.55;;;;;;;;;;4977248;28;20545;-80
2021/06/03 14:19:31;;;;;;;5.40;3.08;;;;;;;;;;4974673;28;20046;-80
2021/06/03 14:21:57;;;;;;;7.47;4.00;;;;;;;;;;4976274;28;20034;-78
2021/06/03 14:24:34;;;;;;;9.35;3.22;;;;;;;;;;4972928;28;20035;-79
2021/06/03 14:27:27;;;;;;;5.18;2.63;;;;;;;;;;4975542;28;20045;-78
2021/06/03 14:30:18;;;;;;;5.75;3.17;;;;;;;;;;4981386;28;20046;-78
2021/06/03 14:32:46;;;;;;;;;;;;;;;;;;4974352;28;20395;-78
2021/06/03 14:35:19;;;;;;;4.68;3.33;;;;;;;;;;4984049;28;19945;-76
2021/06/03 14:37:53;;;;;;;4.65;2.72;;;;;;;;;;4986190;28;20029;-78
2021/06/03 14:40:27;;;;;;;2.80;2.55;;;;;;;;;;4985584;28;20058;-78
2021/06/03 14:43:03;;;;;;;13.10;3.00;;;;;;;;;;4980808;28;20383;-78
2021/06/03 14:45:29;;;;;;;4.53;2.92;;;;;;;;;;5000372;28;20046;-79
2021/06/03 14:47:57;;;;;;;5.32;2.55;;;;;;;;;;4979607;28;20057;-80
2021/06/03 14:50:27;;;;;;;5.43;3.00;;;;;;;;;;4984312;28;20101;-78
2021/06/03 14:52:56;;;;;;;7.03;2.60;;;;;;;;;;4981542;28;20034;-77
2021/06/03 14:55:25;;;;;;;4.82;2.75;;;;;;;;;;4989781;28;20037;-79
2021/06/03 14:57:51;;;;;;;9.57;3.47;;;;;;;;;;4990784;28;20521;-77
2021/06/03 15:00:27;;;;;;;10.00;3.30;;;;;;;;;;4997827;28;20026;-80
2021/06/03 15:02:53;;;;;;;5.63;2.75;;;;;;;;;;4989035;28;20113;-78
2021/06/03 15:05:20;;;;;;;9.35;3.25;;;;;;;;;;4994541;28;20026;-79
2021/06/03 15:07:47;;;;;;;7.03;3.47;;;;;;;;;;4991288;28;20037;-77
2021/06/03 15:10:16;;;;;;;7.82;3.00;;;;;;;;;;4979890;28;20093;-78